Airport View

Enter AWOS ICAO identifier for current METAR.

ex. KFNL

KMNV 120515Z AUTO 00000KT 10SM CLR M03/M03 A3053 RMK A01

12 Dec 2019 05:36

Frequency: 118.475

Phone: 423-442-6170

Other Area AWOS: KMMI - KTYS - KRKW - K2A0

TAF KTYS 112320Z 1200/1224 05003KT P6SM SKC